createdAt,value
2023-03-21T00:00:24.488Z,6.97
2023-03-21T00:02:51.347Z,7.03
2023-03-21T00:05:18.072Z,7.10
2023-03-21T00:07:44.682Z,7.07
2023-03-21T00:10:16.496Z,7.13
2023-03-21T00:12:44.916Z,6.97
2023-03-21T00:15:12.876Z,7.10
2023-03-21T00:17:39.746Z,6.87
2023-03-21T00:20:15.036Z,7.47
2023-03-21T00:22:41.873Z,6.97
2023-03-21T00:25:10.586Z,6.87
2023-03-21T00:27:56.874Z,6.93
2023-03-21T00:30:24.278Z,7.20
2023-03-21T00:32:56.450Z,6.90
2023-03-21T00:36:12.575Z,6.73
2023-03-21T00:38:10.746Z,7.13
2023-03-21T00:40:43.735Z,6.73
2023-03-21T00:43:17.512Z,6.27
2023-03-21T00:45:45.290Z,6.60
2023-03-21T00:48:12.792Z,7.00
2023-03-21T00:50:40.127Z,6.93
2023-03-21T00:53:07.342Z,6.60
2023-03-21T00:55:33.973Z,6.30
2023-03-21T00:58:02.492Z,6.80
2023-03-21T01:00:30.095Z,6.90
2023-03-21T01:03:04.494Z,7.20
2023-03-21T01:05:57.233Z,6.87
2023-03-21T01:08:30.994Z,7.33
2023-03-21T01:11:04.429Z,7.23
2023-03-21T01:13:33.080Z,7.90
2023-03-21T01:16:02.046Z,7.63
2023-03-21T01:18:30.281Z,7.73
2023-03-21T01:20:59.850Z,8.23
2023-03-21T01:23:28.865Z,8.70
2023-03-21T01:25:56.623Z,9.43
2023-03-21T01:28:25.807Z,10.20
2023-03-21T01:30:52.689Z,9.40
2023-03-21T01:33:20.859Z,10.63
2023-03-21T01:35:55.185Z,11.00
2023-03-21T01:38:27.103Z,12.33
2023-03-21T01:40:53.918Z,11.93
2023-03-21T01:43:25.676Z,12.70
2023-03-21T01:46:22.421Z,12.63
2023-03-21T01:48:54.871Z,12.53
2023-03-21T01:51:22.339Z,13.03
2023-03-21T01:53:49.215Z,13.10
2023-03-21T01:56:32.990Z,13.07
2023-03-21T01:59:08.018Z,13.40
2023-03-21T02:04:38.167Z,11.80
2023-03-21T02:07:10.162Z,12.77
2023-03-21T02:09:40.189Z,16.63
2023-03-21T02:12:09.245Z,15.93
2023-03-21T02:14:37.690Z,15.33
2023-03-21T02:17:27.230Z,17.67
2023-03-21T02:20:14.984Z,17.13
2023-03-21T02:23:31.006Z,18.67
2023-03-21T02:26:16.351Z,18.97
2023-03-21T02:28:47.318Z,19.20
2023-03-21T02:31:32.306Z,19.33
2023-03-21T02:34:42.493Z,19.57
2023-03-21T02:37:37.634Z,18.83
2023-03-21T02:40:23.389Z,20.17
2023-03-21T02:43:14.164Z,20.70
2023-03-21T02:45:57.970Z,22.97
2023-03-21T02:48:51.063Z,22.50
2023-03-21T02:51:21.867Z,22.47
2023-03-21T02:54:16.226Z,23.17
2023-03-21T02:56:41.348Z,24.07
2023-03-21T02:59:08.765Z,22.33
2023-03-21T03:01:35.726Z,22.43
2023-03-21T03:04:03.023Z,23.40
2023-03-21T03:06:37.957Z,23.27
2023-03-21T03:09:14.615Z,24.03
2023-03-21T03:11:43.940Z,25.57
2023-03-21T03:14:44.144Z,23.50
2023-03-21T03:17:23.523Z,23.73
2023-03-21T03:20:17.501Z,23.23
2023-03-21T03:22:51.860Z,23.77
2023-03-21T03:25:36.011Z,23.30
2023-03-21T03:28:08.980Z,23.50
2023-03-21T03:30:44.717Z,24.37
2023-03-21T03:33:17.875Z,23.33
2023-03-21T03:35:55.849Z,24.60
2023-03-21T03:38:29.923Z,24.20
2023-03-21T03:41:01.739Z,24.97
2023-03-21T03:43:40.888Z,23.93
2023-03-21T03:46:21.973Z,22.97
2023-03-21T03:48:54.705Z,23.43
2023-03-21T03:51:33.670Z,23.23
2023-03-21T03:54:06.425Z,25.07
2023-03-21T03:56:33.992Z,24.67
2023-03-21T03:59:04.359Z,25.07
2023-03-21T04:01:31.029Z,25.53
2023-03-21T04:04:11.938Z,25.70
2023-03-21T04:06:39.382Z,25.40
2023-03-21T04:09:19.304Z,24.87
2023-03-21T04:11:47.679Z,25.17
2023-03-21T04:14:14.348Z,23.97
2023-03-21T04:16:40.957Z,24.57
2023-03-21T04:19:07.611Z,25.90
2023-03-21T04:21:34.250Z,24.07
2023-03-21T04:24:01.268Z,24.57
2023-03-21T04:26:32.893Z,24.17
2023-03-21T04:29:00.821Z,23.23
2023-03-21T04:31:28.529Z,23.73
2023-03-21T04:33:55.844Z,24.10
2023-03-21T04:36:27.711Z,24.93
2023-03-21T04:38:54.993Z,24.53
2023-03-21T04:41:21.584Z,24.27
2023-03-21T04:43:48.314Z,24.87
2023-03-21T04:46:15.440Z,23.50
2023-03-21T04:48:42.115Z,24.37
2023-03-21T04:51:08.767Z,22.63
2023-03-21T04:53:35.583Z,25.00
2023-03-21T04:56:02.144Z,23.23
2023-03-21T04:58:28.719Z,24.40
2023-03-21T05:00:57.302Z,23.87
2023-03-21T05:03:24.832Z,24.03
2023-03-21T05:05:51.486Z,23.93
2023-03-21T05:08:18.034Z,23.47
2023-03-21T05:10:44.652Z,24.33
2023-03-21T05:13:11.224Z,25.70
2023-03-21T05:15:38.219Z,24.47
2023-03-21T05:18:11.418Z,25.53
2023-03-21T05:20:42.741Z,25.10
2023-03-21T05:23:10.890Z,25.83
2023-03-21T05:25:39.039Z,25.80
2023-03-21T05:28:07.148Z,24.57
2023-03-21T05:30:34.218Z,23.47
2023-03-21T05:33:01.012Z,23.00
2023-03-21T05:35:27.992Z,22.27
2023-03-21T05:37:54.767Z,22.33
2023-03-21T05:40:21.539Z,26.17
2023-03-21T05:42:48.653Z,22.73
2023-03-21T05:45:15.989Z,25.47
2023-03-21T05:47:42.618Z,23.53
2023-03-21T05:50:11.133Z,23.23
2023-03-21T05:52:37.699Z,22.57
2023-03-21T05:55:05.354Z,23.83
2023-03-21T05:57:35.004Z,23.77
2023-03-21T06:00:01.980Z,23.07
2023-03-21T06:02:28.605Z,23.87
2023-03-21T06:04:56.554Z,23.67
2023-03-21T06:07:23.861Z,23.40
2023-03-21T06:09:50.458Z,24.23
2023-03-21T06:12:16.994Z,23.87
2023-03-21T06:14:43.552Z,24.53
2023-03-21T06:17:10.162Z,23.90
2023-03-21T06:19:36.819Z,24.17
2023-03-21T06:22:03.650Z,22.77
2023-03-21T06:24:30.511Z,24.03
2023-03-21T06:26:57.184Z,23.63
2023-03-21T06:29:23.864Z,24.23
2023-03-21T06:31:50.633Z,22.40
2023-03-21T06:34:17.263Z,22.23
2023-03-21T06:36:44.696Z,21.47
2023-03-21T06:39:11.353Z,22.77
2023-03-21T06:41:38.016Z,22.87
2023-03-21T06:44:04.949Z,22.57
2023-03-21T06:46:31.613Z,23.03
2023-03-21T06:48:58.252Z,22.57
2023-03-21T06:51:24.822Z,22.80
2023-03-21T06:53:51.405Z,23.57
2023-03-21T06:56:18.017Z,23.20
2023-03-21T06:58:44.564Z,24.63
2023-03-21T07:01:11.159Z,24.37
2023-03-21T07:03:37.914Z,23.30
2023-03-21T07:06:11.650Z,23.53
2023-03-21T07:08:39.706Z,24.47
2023-03-21T07:11:06.979Z,24.37
2023-03-21T07:13:33.675Z,23.93
2023-03-21T07:16:00.619Z,23.20
2023-03-21T07:18:27.587Z,24.90
2023-03-21T07:20:54.198Z,22.93
2023-03-21T07:23:23.064Z,23.93
2023-03-21T07:25:51.394Z,23.13
2023-03-21T07:28:19.416Z,23.43
2023-03-21T07:30:55.893Z,24.80
2023-03-21T07:33:23.647Z,24.33
2023-03-21T07:35:51.657Z,24.67
2023-03-21T07:38:19.276Z,24.50
2023-03-21T07:40:47.946Z,24.03
2023-03-21T07:43:15.505Z,24.37
2023-03-21T07:45:42.660Z,23.07
2023-03-21T07:48:10.898Z,25.20
2023-03-21T07:50:37.626Z,24.53
2023-03-21T07:53:04.603Z,25.20
2023-03-21T07:55:34.855Z,26.70
2023-03-21T07:58:03.198Z,25.10
2023-03-21T08:00:30.412Z,25.20
2023-03-21T08:02:59.039Z,25.63
2023-03-21T08:05:30.085Z,25.80
2023-03-21T08:07:57.357Z,26.53
2023-03-21T08:10:24.393Z,26.20
2023-03-21T08:12:51.012Z,25.73
2023-03-21T08:15:17.775Z,25.30
2023-03-21T08:17:45.574Z,25.60
2023-03-21T08:20:18.071Z,26.87
2023-03-21T08:22:44.727Z,25.33
2023-03-21T08:25:13.883Z,26.00
2023-03-21T08:27:42.114Z,25.97
2023-03-21T08:30:10.869Z,26.10
2023-03-21T08:32:38.697Z,25.93
2023-03-21T08:35:10.060Z,25.90
2023-03-21T08:37:37.668Z,26.40
2023-03-21T08:40:11.395Z,25.73
2023-03-21T08:42:39.069Z,27.27
2023-03-21T08:45:06.702Z,26.27
2023-03-21T08:47:33.451Z,26.17
2023-03-21T08:50:00.245Z,24.40
2023-03-21T08:52:27.634Z,27.37
2023-03-21T08:54:54.591Z,25.57
2023-03-21T08:57:21.330Z,24.73
2023-03-21T08:59:47.991Z,25.10
2023-03-21T09:02:16.140Z,25.83
2023-03-21T09:04:44.704Z,24.50
2023-03-21T09:07:14.241Z,23.63
2023-03-21T09:09:41.668Z,21.13
2023-03-21T09:12:08.661Z,22.83
2023-03-21T09:14:35.472Z,21.67
2023-03-21T09:17:02.357Z,20.60
2023-03-21T09:19:30.029Z,20.40
2023-03-21T09:21:57.565Z,20.70
2023-03-21T09:24:24.251Z,20.87
2023-03-21T09:26:51.714Z,20.27
2023-03-21T09:29:23.153Z,19.83
2023-03-21T09:31:49.720Z,19.57
2023-03-21T09:34:16.359Z,18.40
2023-03-21T09:36:44.256Z,18.70
2023-03-21T09:39:11.941Z,19.33
2023-03-21T09:41:55.475Z,20.40
2023-03-21T09:44:34.371Z,19.63
2023-03-21T09:47:15.225Z,19.03
2023-03-21T09:49:45.521Z,18.20
2023-03-21T09:52:24.376Z,19.67
2023-03-21T09:54:52.167Z,18.53
2023-03-21T09:57:47.146Z,16.93
2023-03-21T10:00:21.797Z,17.93
2023-03-21T10:02:51.738Z,18.27
2023-03-21T10:05:25.750Z,18.03
2023-03-21T10:08:15.071Z,16.80
2023-03-21T10:10:54.399Z,17.23
2023-03-21T10:13:28.872Z,17.40
2023-03-21T10:16:14.005Z,17.20
2023-03-21T10:18:42.801Z,17.20
2023-03-21T10:21:43.071Z,16.83
2023-03-21T10:24:06.337Z,16.87
2023-03-21T10:26:33.172Z,16.97
2023-03-21T10:29:03.201Z,17.30
2023-03-21T10:31:31.198Z,16.73
2023-03-21T10:34:02.467Z,17.77
2023-03-21T10:36:31.931Z,18.17
2023-03-21T10:39:20.881Z,16.73
2023-03-21T10:41:47.527Z,17.43
2023-03-21T10:44:17.750Z,16.80
2023-03-21T10:46:57.136Z,16.80
2023-03-21T10:49:25.471Z,17.87
2023-03-21T10:51:56.578Z,16.87
2023-03-21T10:54:30.960Z,16.07
2023-03-21T10:57:11.880Z,16.23
2023-03-21T10:59:45.568Z,16.57
2023-03-21T11:02:19.852Z,17.97
2023-03-21T11:04:46.936Z,19.50
2023-03-21T11:07:15.353Z,18.90
2023-03-21T11:09:57.520Z,19.47
2023-03-21T11:12:37.552Z,19.40
2023-03-21T11:15:33.498Z,19.67
2023-03-21T11:18:12.892Z,19.33
2023-03-21T11:20:48.321Z,18.47
2023-03-21T11:23:15.228Z,16.83
2023-03-21T11:25:42.732Z,16.93
2023-03-21T11:28:15.854Z,17.07
2023-03-21T11:30:57.211Z,15.80
2023-03-21T11:33:28.369Z,16.57
2023-03-21T11:36:04.381Z,16.93
2023-03-21T11:38:39.662Z,16.30
2023-03-21T11:41:06.977Z,16.97
2023-03-21T11:43:39.395Z,16.70
2023-03-21T11:46:09.459Z,16.00
2023-03-21T11:48:44.105Z,15.20
2023-03-21T11:51:43.499Z,15.00
2023-03-21T11:54:20.575Z,16.83
2023-03-21T11:56:51.046Z,17.03
2023-03-21T12:00:13.205Z,17.37
2023-03-21T12:03:18.569Z,17.47
2023-03-21T12:06:01.220Z,16.50
2023-03-21T12:08:43.720Z,17.20
2023-03-21T12:11:37.107Z,17.30
2023-03-21T12:14:18.130Z,16.40
2023-03-21T12:17:17.823Z,16.43
2023-03-21T12:20:22.326Z,16.80
2023-03-21T12:23:03.704Z,16.63
2023-03-21T12:25:56.312Z,15.43
2023-03-21T12:28:56.852Z,15.87
2023-03-21T12:31:36.023Z,15.13
2023-03-21T12:34:30.960Z,15.83
2023-03-21T12:37:32.420Z,14.97
2023-03-21T12:40:35.389Z,19.03
2023-03-21T12:43:34.280Z,14.47
2023-03-21T12:46:34.710Z,14.70
2023-03-21T12:49:19.561Z,15.33
2023-03-21T12:51:55.583Z,15.43
2023-03-21T12:54:32.094Z,14.33
2023-03-21T12:57:19.102Z,15.00
2023-03-21T13:00:11.848Z,14.30
2023-03-21T13:03:03.669Z,14.80
2023-03-21T13:05:35.825Z,15.20
2023-03-21T13:08:18.216Z,14.80
2023-03-21T13:10:46.332Z,15.60
2023-03-21T13:13:29.367Z,15.17
2023-03-21T13:16:20.584Z,15.00
2023-03-21T13:19:22.402Z,13.80
2023-03-21T13:21:51.997Z,13.40
2023-03-21T13:24:48.475Z,13.93
2023-03-21T13:27:33.713Z,14.77
2023-03-21T13:30:06.544Z,13.40
2023-03-21T13:32:37.708Z,13.53
2023-03-21T13:35:15.080Z,13.50
2023-03-21T13:37:52.628Z,13.03
2023-03-21T13:40:38.315Z,13.57
2023-03-21T13:43:05.098Z,13.47
2023-03-21T13:45:33.127Z,13.50
2023-03-21T13:48:04.340Z,13.07
2023-03-21T13:51:00.802Z,12.23
2023-03-21T13:53:39.245Z,13.40
2023-03-21T13:56:20.998Z,12.77
2023-03-21T13:58:47.550Z,11.83
2023-03-21T14:01:39.396Z,10.97
2023-03-21T14:04:24.024Z,11.13
2023-03-21T14:06:58.929Z,10.50
2023-03-21T14:09:37.176Z,10.23
2023-03-21T14:12:07.891Z,9.70
2023-03-21T14:14:41.257Z,10.17
2023-03-21T14:17:22.219Z,10.30
2023-03-21T14:19:55.909Z,9.93
2023-03-21T14:22:22.912Z,10.67
2023-03-21T14:24:56.410Z,10.63
2023-03-21T14:27:25.722Z,10.37
2023-03-21T14:29:53.332Z,10.20
2023-03-21T14:32:24.130Z,10.60
2023-03-21T14:34:50.995Z,10.43
2023-03-21T14:37:47.661Z,10.70
2023-03-21T14:40:22.229Z,9.87
2023-03-21T14:42:50.250Z,10.60
2023-03-21T14:45:21.049Z,10.03
2023-03-21T14:48:04.442Z,10.63
2023-03-21T14:50:46.631Z,9.87
2023-03-21T14:53:35.857Z,9.87
2023-03-21T14:56:23.587Z,9.30
2023-03-21T14:58:50.484Z,9.23
2023-03-21T15:01:34.531Z,9.37
2023-03-21T15:04:05.834Z,8.97
2023-03-21T15:06:32.889Z,8.60
2023-03-21T15:09:02.289Z,8.90
2023-03-21T15:11:40.057Z,8.53
2023-03-21T15:14:11.765Z,9.57
2023-03-21T15:16:39.508Z,9.43
2023-03-21T15:19:07.138Z,8.60
2023-03-21T15:21:48.191Z,9.53
2023-03-21T15:24:36.186Z,8.90
2023-03-21T15:27:08.618Z,9.17
2023-03-21T15:29:36.961Z,8.47
2023-03-21T15:32:06.808Z,8.57
2023-03-21T15:34:33.719Z,9.43
2023-03-21T15:37:13.239Z,9.03
2023-03-21T15:39:40.106Z,8.53
2023-03-21T15:42:31.944Z,8.50
2023-03-21T15:45:02.312Z,8.43
2023-03-21T15:47:48.338Z,9.43
2023-03-21T15:50:24.171Z,8.73
2023-03-21T15:52:52.608Z,8.63
2023-03-21T15:55:27.912Z,8.40
2023-03-21T15:58:09.718Z,8.33
2023-03-21T16:00:40.996Z,8.47
2023-03-21T16:03:16.930Z,8.90
2023-03-21T16:06:00.805Z,8.70
2023-03-21T16:08:28.949Z,8.67
2023-03-21T16:11:15.620Z,8.57
2023-03-21T16:13:42.219Z,7.87
2023-03-21T16:16:23.632Z,7.87
2023-03-21T16:18:51.644Z,8.27
2023-03-21T16:21:21.358Z,8.40
2023-03-21T16:23:48.610Z,8.37
2023-03-21T16:26:18.389Z,8.60
2023-03-21T16:28:45.938Z,8.80
2023-03-21T16:31:19.636Z,8.73
2023-03-21T16:33:47.382Z,8.47
2023-03-21T16:36:17.818Z,9.80
2023-03-21T16:38:52.689Z,9.30
2023-03-21T16:41:19.962Z,9.67
2023-03-21T16:43:46.538Z,8.67
2023-03-21T16:46:23.545Z,9.93
2023-03-21T16:48:52.900Z,11.07
2023-03-21T16:51:41.218Z,12.17
2023-03-21T16:54:07.805Z,11.03
2023-03-21T16:56:41.756Z,12.50
2023-03-21T16:59:12.171Z,12.50
2023-03-21T17:01:41.112Z,12.30
2023-03-21T17:04:08.986Z,13.10
2023-03-21T17:06:44.655Z,13.57
2023-03-21T17:09:13.638Z,13.27
2023-03-21T17:11:41.508Z,13.77
2023-03-21T17:14:09.839Z,14.03
2023-03-21T17:16:37.014Z,13.80
2023-03-21T17:19:12.064Z,14.03
2023-03-21T17:21:38.621Z,13.40
2023-03-21T17:24:05.367Z,12.77
2023-03-21T17:26:32.219Z,12.90
2023-03-21T17:28:59.742Z,13.33
2023-03-21T17:31:30.536Z,13.97
2023-03-21T17:33:57.091Z,14.33
2023-03-21T17:36:35.461Z,14.50
2023-03-21T17:39:04.327Z,14.07
2023-03-21T17:41:30.899Z,13.80
2023-03-21T17:43:57.532Z,14.90
2023-03-21T17:46:27.224Z,14.27
2023-03-21T17:48:53.953Z,14.33
2023-03-21T17:51:22.986Z,15.70
2023-03-21T17:53:53.308Z,16.20
2023-03-21T17:56:30.715Z,16.20
2023-03-21T17:59:07.174Z,16.37
2023-03-21T18:01:35.405Z,16.20
2023-03-21T18:04:04.855Z,16.23
2023-03-21T18:06:33.963Z,17.23
2023-03-21T18:09:04.266Z,16.30
2023-03-21T18:11:30.893Z,17.53
2023-03-21T18:14:13.702Z,16.80
2023-03-21T18:16:42.424Z,16.90
2023-03-21T18:19:12.499Z,16.77
2023-03-21T18:21:40.660Z,16.70
2023-03-21T18:24:07.548Z,16.30
2023-03-21T18:26:34.286Z,16.70
2023-03-21T18:30:03.800Z,17.40
2023-03-21T18:32:04.538Z,16.97
2023-03-21T18:34:32.879Z,17.37
2023-03-21T18:36:59.607Z,17.47
2023-03-21T18:39:26.311Z,17.60
2023-03-21T18:41:57.847Z,18.57
2023-03-21T18:44:25.633Z,18.67
2023-03-21T18:46:52.517Z,17.77
2023-03-21T18:52:08.288Z,17.73
2023-03-21T18:54:36.519Z,18.27
2023-03-21T18:59:52.201Z,18.37
2023-03-21T19:02:19.089Z,19.03
2023-03-21T19:04:46.411Z,19.77
2023-03-21T19:07:13.146Z,17.40
2023-03-21T19:10:01.396Z,17.00
2023-03-21T19:12:27.206Z,16.53
2023-03-21T19:14:54.308Z,16.93
2023-03-21T19:20:08.551Z,16.33
2023-03-21T19:22:35.143Z,16.50
2023-03-21T19:25:01.760Z,16.37
2023-03-21T19:27:28.411Z,16.73
2023-03-21T19:30:10.821Z,17.03
2023-03-21T19:32:40.758Z,16.43
2023-03-21T19:35:07.819Z,16.53
2023-03-21T19:37:36.214Z,17.73
2023-03-21T19:40:05.268Z,18.17
2023-03-21T19:42:32.367Z,16.53
2023-03-21T19:44:59.070Z,16.50
2023-03-21T19:47:26.218Z,14.93
2023-03-21T19:52:40.697Z,14.13
2023-03-21T19:55:08.063Z,15.50
2023-03-21T19:57:35.050Z,15.27
2023-03-21T20:00:01.931Z,16.40
2023-03-21T20:02:36.956Z,16.80
2023-03-21T20:05:07.685Z,17.00
2023-03-21T20:07:34.527Z,17.33
2023-03-21T20:10:01.349Z,16.27
2023-03-21T20:12:28.560Z,17.57
2023-03-21T20:15:07.044Z,16.93
2023-03-21T20:17:36.100Z,16.03
2023-03-21T20:20:13.611Z,17.83
2023-03-21T20:25:28.339Z,17.60
2023-03-21T20:28:12.737Z,16.53
2023-03-21T20:30:53.879Z,16.70
2023-03-21T20:33:20.644Z,18.37
2023-03-21T20:38:36.633Z,17.73
2023-03-21T20:41:05.670Z,17.43
2023-03-21T20:46:19.970Z,20.90
2023-03-21T20:48:48.796Z,17.87
2023-03-21T20:52:14.765Z,20.27
2023-03-21T20:54:04.143Z,18.17
2023-03-21T20:56:30.973Z,18.33
2023-03-21T20:59:12.229Z,19.73
2023-03-21T21:01:43.070Z,19.37
2023-03-21T21:04:10.219Z,19.37
2023-03-21T21:06:36.908Z,19.80
2023-03-21T21:09:04.082Z,21.10
2023-03-21T21:14:17.634Z,20.90
2023-03-21T21:16:45.024Z,21.00
2023-03-21T21:19:11.650Z,20.77
2023-03-21T21:21:38.581Z,20.63
2023-03-21T21:24:07.572Z,20.60
2023-03-21T21:26:34.592Z,21.23
2023-03-21T21:29:01.689Z,20.53
2023-03-21T21:31:28.558Z,19.50
2023-03-21T21:33:55.342Z,21.50
2023-03-21T21:36:22.711Z,22.07
2023-03-21T21:38:49.708Z,21.90
2023-03-21T21:41:19.288Z,21.97
2023-03-21T21:43:47.030Z,21.50
2023-03-21T21:46:15.138Z,21.50
2023-03-21T21:48:42.506Z,21.10
2023-03-21T21:51:09.804Z,21.70
2023-03-21T21:53:40.888Z,20.73
2023-03-21T21:56:09.524Z,21.40
2023-03-21T21:58:38.915Z,21.73
2023-03-21T22:01:07.058Z,21.20
2023-03-21T22:03:40.877Z,21.97
2023-03-21T22:06:09.500Z,20.50
2023-03-21T22:08:36.339Z,20.77
2023-03-21T22:11:03.677Z,21.33
2023-03-21T22:13:30.242Z,21.27
2023-03-21T22:15:56.898Z,20.20
2023-03-21T22:18:23.500Z,22.07
2023-03-21T22:20:50.423Z,21.83
2023-03-21T22:23:19.275Z,21.90
2023-03-21T22:25:51.253Z,21.20
2023-03-21T22:28:17.897Z,22.13
2023-03-21T22:30:44.507Z,21.50
2023-03-21T22:33:11.054Z,20.77
2023-03-21T22:35:37.883Z,20.70
2023-03-21T22:38:04.536Z,20.80
2023-03-21T22:40:31.127Z,21.07
2023-03-21T22:42:57.687Z,22.67
2023-03-21T22:45:24.237Z,21.60
2023-03-21T22:47:51.253Z,21.30
2023-03-21T22:50:17.937Z,22.33
2023-03-21T22:52:44.544Z,21.13
2023-03-21T22:55:12.730Z,21.00
2023-03-21T22:57:39.331Z,20.80
2023-03-21T23:00:14.328Z,20.37
2023-03-21T23:02:42.517Z,19.83
2023-03-21T23:05:10.268Z,19.03
2023-03-21T23:07:37.241Z,19.43
2023-03-21T23:10:05.101Z,20.17
2023-03-21T23:12:31.973Z,20.17
2023-03-21T23:14:58.612Z,17.70
2023-03-21T23:17:26.579Z,17.03
2023-03-21T23:19:53.132Z,16.17
2023-03-21T23:22:19.739Z,16.13
2023-03-21T23:24:46.970Z,16.77
2023-03-21T23:27:14.204Z,14.77
2023-03-21T23:29:40.814Z,14.83
2023-03-21T23:32:07.375Z,14.87
2023-03-21T23:34:34.044Z,15.13
2023-03-21T23:37:00.753Z,15.60
2023-03-21T23:39:28.236Z,15.27
2023-03-21T23:41:54.992Z,14.57
2023-03-21T23:44:21.551Z,15.27
2023-03-21T23:46:48.103Z,15.67
2023-03-21T23:49:15.389Z,15.73
2023-03-21T23:51:42.174Z,14.83
2023-03-21T23:54:09.207Z,14.03
2023-03-21T23:56:36.396Z,14.37
2023-03-21T23:59:03.434Z,14.10
